Time;durP1;ratioP1;P1;durP2;ratioP2;P2;SDS_P1;SDS_P2;PMS_P1;PMS_P2;Temp;Humidity;BMP_temperature;BMP_pressure;BME280_temperature;BME280_humidity;BME280_pressure;Samples;Min_cycle;Max_cycle;Signal;HPM_P1;HPM_P2
2022/07/30 00:01:05;;;;;;;10.13;7.45;;;;;;;22.36;81.47;99517.66;5020138;28;20042;-87
2022/07/30 00:03:32;;;;;;;9.55;7.68;;;;;;;22.31;81.99;99516.44;5018653;28;20049;-83
2022/07/30 00:05:57;;;;;;;12.57;8.07;;;;;;;22.25;82.88;99512.88;5028091;28;20140;-83
2022/07/30 00:08:23;;;;;;;8.48;7.68;;;;;;;22.16;83.68;99512.50;5024728;28;20444;-83
2022/07/30 00:10:49;;;;;;;9.00;8.10;;;;;;;22.12;83.82;99512.75;5029217;28;20072;-83
2022/07/30 00:13:15;;;;;;;8.35;7.55;;;;;;;22.08;84.38;99512.28;5030053;28;20049;-83
2022/07/30 00:15:41;;;;;;;9.48;8.57;;;;;;;22.02;84.27;99491.81;5015693;28;20427;-83
2022/07/30 00:18:06;;;;;;;10.45;8.25;;;;;;;22.04;84.84;99511.81;5011468;28;20635;-83
2022/07/30 00:20:32;;;;;;;11.40;8.45;;;;;;;22.01;84.58;99501.59;5027077;28;20045;-88
2022/07/30 00:22:57;;;;;;;9.48;8.40;;;;;;;22.03;84.84;99499.00;5021373;28;20582;-88
2022/07/30 00:25:23;;;;;;;11.82;8.27;;;;;;;21.94;86.14;99502.19;5017244;28;20116;-87
2022/07/30 00:27:48;;;;;;;9.80;8.10;;;;;;;21.88;86.40;99507.84;5021096;28;20117;-87
2022/07/30 00:30:14;;;;;;;9.23;8.23;;;;;;;21.90;86.40;99515.78;5015656;28;20065;-87
2022/07/30 00:32:42;;;;;;;9.40;8.40;;;;;;;21.87;86.27;99502.72;5014878;28;20112;-87
2022/07/30 00:35:08;;;;;;;9.43;7.65;;;;;;;21.80;86.57;99503.28;5013385;28;20581;-87
2022/07/30 00:37:34;;;;;;;9.18;8.20;;;;;;;21.80;86.67;99492.00;5023725;28;20053;-88
2022/07/30 00:40:00;;;;;;;8.93;8.05;;;;;;;21.76;87.68;99502.81;5034631;28;20549;-87
2022/07/30 00:42:39;;;;;;;9.75;8.75;;;;;;;21.72;88.16;99496.69;5029691;28;20565;-83
2022/07/30 00:45:06;;;;;;;9.75;8.75;;;;;;;21.61;89.49;99500.38;5030926;28;20072;-88
2022/07/30 00:47:32;;;;;;;9.55;8.65;;;;;;;21.63;88.97;99497.06;5011408;28;20045;-87
2022/07/30 00:49:57;;;;;;;8.95;8.00;;;;;;;21.62;88.63;99498.34;5019028;28;20373;-86
2022/07/30 00:52:23;;;;;;;11.05;7.63;;;;;;;21.64;88.28;99507.03;5016855;28;20068;-87
2022/07/30 00:54:48;;;;;;;9.68;8.77;;;;;;;21.63;88.17;99499.88;5022488;28;20363;-87
2022/07/30 00:57:14;;;;;;;8.98;8.07;;;;;;;21.64;88.18;99501.38;5018268;28;20076;-87
2022/07/30 00:59:39;;;;;;;9.10;8.30;;;;;;;21.63;88.32;99499.88;5025145;28;20030;-83
2022/07/30 01:02:37;;;;;;;9.02;8.02;;;;;;;21.65;87.54;99497.28;5303251;22;21476;-82
2022/07/30 01:05:04;;;;;;;9.13;8.18;;;;;;;21.68;87.77;99496.22;5083036;28;20052;-82
2022/07/30 01:07:29;;;;;;;9.75;8.77;;;;;;;21.62;87.92;99493.47;5070076;28;20076;-82
2022/07/30 01:09:55;;;;;;;8.85;7.95;;;;;;;21.65;87.47;99486.00;5072803;28;20035;-82
2022/07/30 01:12:24;;;;;;;9.50;8.60;;;;;;;21.63;87.64;99480.13;5089843;28;20036;-82
2022/07/30 01:14:50;;;;;;;9.20;8.30;;;;;;;21.59;87.47;99468.34;5091531;28;20055;-84
2022/07/30 01:17:15;;;;;;;9.65;8.45;;;;;;;21.57;88.10;99471.69;5082143;28;20035;-84
2022/07/30 01:19:48;;;;;;;9.20;8.30;;;;;;;21.55;87.95;99470.69;5083913;28;20530;-84
2022/07/30 01:22:28;;;;;;;9.23;8.40;;;;;;;21.50;88.91;99463.03;5083474;28;20046;-83
2022/07/30 01:25:09;;;;;;;9.40;8.50;;;;;;;21.53;88.27;99461.97;5090746;28;20032;-83
2022/07/30 01:27:43;;;;;;;9.55;8.68;;;;;;;21.44;89.32;99460.25;5072750;28;20131;-83
2022/07/30 01:30:10;;;;;;;9.85;8.85;;;;;;;21.39;89.76;99453.34;5056601;28;20047;-83
2022/07/30 01:32:38;;;;;;;12.15;9.15;;;;;;;21.37;90.12;99458.78;5056696;28;20630;-83
2022/07/30 01:35:05;;;;;;;10.35;9.25;;;;;;;21.41;89.56;99455.66;5053234;28;20494;-84
2022/07/30 01:37:32;;;;;;;9.23;8.35;;;;;;;21.39;89.51;99456.19;5068809;28;20497;-83
2022/07/30 01:39:58;;;;;;;9.68;8.73;;;;;;;21.37;89.65;99444.66;5071795;28;20048;-82
2022/07/30 01:42:25;;;;;;;9.48;8.57;;;;;;;21.38;90.16;99445.44;5067135;28;20044;-83
2022/07/30 01:44:51;;;;;;;11.75;8.95;;;;;;;21.39;89.88;99435.69;5068836;28;20393;-83
2022/07/30 01:47:18;;;;;;;10.93;9.45;;;;;;;21.35;90.12;99435.97;5078487;28;20040;-83
2022/07/30 01:49:46;;;;;;;9.95;8.95;;;;;;;21.37;90.04;99441.09;5053606;28;20032;-83
2022/07/30 01:52:12;;;;;;;10.77;9.45;;;;;;;21.33;90.35;99435.72;5051422;28;20063;-83
2022/07/30 01:54:38;;;;;;;10.20;9.20;;;;;;;21.34;90.56;99431.63;5058343;28;20040;-83
2022/07/30 01:57:05;;;;;;;10.52;9.45;;;;;;;21.36;90.74;99431.09;5068957;28;20036;-83
2022/07/30 01:59:32;;;;;;;9.68;8.65;;;;;;;21.33;90.55;99435.72;5051166;28;20124;-83
2022/07/30 02:01:59;;;;;;;11.10;9.20;;;;;;;21.35;90.55;99424.66;5037509;28;20037;-83
2022/07/30 02:04:26;;;;;;;12.32;9.10;;;;;;;21.39;90.35;99407.47;5061576;28;20041;-83
2022/07/30 02:07:43;;;;;;;10.45;8.60;;;;;;;21.40;89.76;99404.13;5070337;28;20047;-83
2022/07/30 02:10:33;;;;;;;11.07;9.98;;;;;;;21.44;89.59;99417.16;5014532;28;20045;-83
2022/07/30 02:13:02;;;;;;;9.95;9.05;;;;;;;21.46;90.05;99423.06;5044594;28;20234;-83
2022/07/30 02:16:11;;;;;;;10.48;9.45;;;;;;;21.46;89.89;99423.06;5066904;28;20123;-81
2022/07/30 02:19:07;;;;;;;9.50;8.52;;;;;;;21.46;90.14;99428.69;4989952;28;20054;-81
2022/07/30 02:21:41;;;;;;;10.25;8.60;;;;;;;21.37;89.95;99433.38;5007606;28;20523;-82
2022/07/30 02:24:11;;;;;;;10.55;9.55;;;;;;;21.33;90.61;99432.91;5029380;28;20083;-81
2022/07/30 02:26:38;;;;;;;10.85;9.70;;;;;;;21.30;91.31;99433.19;5064525;28;20036;-81
2022/07/30 02:29:05;;;;;;;11.50;9.55;;;;;;;21.23;91.34;99434.50;5064322;28;20449;-81
2022/07/30 02:31:32;;;;;;;12.38;9.00;;;;;;;21.16;91.33;99417.41;5054329;28;20037;-82
2022/07/30 02:34:00;;;;;;;10.52;9.38;;;;;;;21.24;91.65;99432.47;5060646;28;20090;-81
2022/07/30 02:36:27;;;;;;;11.18;9.48;;;;;;;21.23;91.41;99428.88;5067392;28;20409;-82
2022/07/30 02:38:53;;;;;;;10.90;9.80;;;;;;;21.19;91.85;99416.38;5046236;28;20044;-81
2022/07/30 02:41:23;;;;;;;10.65;9.55;;;;;;;21.19;92.02;99425.56;5056623;28;20047;-80
2022/07/30 02:43:51;;;;;;;10.93;9.43;;;;;;;21.12;92.52;99412.03;5043087;28;20125;-82
2022/07/30 02:46:18;;;;;;;10.30;9.45;;;;;;;21.15;92.81;99425.09;5060964;28;20052;-82
2022/07/30 02:49:11;;;;;;;10.63;9.63;;;;;;;21.17;93.14;99435.84;5060984;28;20053;-82
2022/07/30 02:51:39;;;;;;;11.05;9.95;;;;;;;21.14;93.86;99432.03;5066962;28;20135;-83
2022/07/30 02:54:06;;;;;;;11.95;10.70;;;;;;;21.13;94.01;99424.09;5051441;28;20199;-82
2022/07/30 02:56:32;;;;;;;10.55;9.45;;;;;;;21.13;94.38;99416.41;5050606;28;20047;-83
2022/07/30 02:59:00;;;;;;;11.95;10.77;;;;;;;21.09;94.76;99415.91;5049824;28;20044;-83
2022/07/30 03:01:26;;;;;;;10.98;9.80;;;;;;;21.14;94.74;99420.00;5049248;28;20040;-83
2022/07/30 03:03:53;;;;;;;11.57;10.38;;;;;;;21.06;95.22;99424.66;5050917;28;20512;-83
2022/07/30 03:06:19;;;;;;;11.25;9.98;;;;;;;21.07;94.84;99429.75;5064846;28;20041;-83
2022/07/30 03:08:45;;;;;;;12.35;9.88;;;;;;;21.04;95.27;99410.28;5069903;28;20083;-83
2022/07/30 03:11:12;;;;;;;11.07;9.98;;;;;;;21.05;95.70;99418.22;5056281;28;20065;-83
2022/07/30 03:13:39;;;;;;;11.38;10.27;;;;;;;21.04;95.53;99419.50;5052819;28;20045;-82
2022/07/30 03:16:09;;;;;;;13.70;10.13;;;;;;;21.01;95.54;99423.38;5063294;28;20448;-82
2022/07/30 03:18:36;;;;;;;12.48;10.57;;;;;;;21.00;94.79;99429.53;5044561;28;20057;-82
2022/07/30 03:21:03;;;;;;;11.15;10.00;;;;;;;20.97;94.92;99422.91;5046147;28;20052;-82
2022/07/30 03:23:32;;;;;;;10.93;9.82;;;;;;;20.97;94.82;99428.53;5049314;28;20051;-82
2022/07/30 03:26:00;;;;;;;12.02;9.93;;;;;;;20.93;95.06;99428.06;5043736;28;20056;-82
2022/07/30 03:28:27;;;;;;;13.05;9.80;;;;;;;20.90;94.81;99434.75;5047827;28;20037;-82
2022/07/30 03:30:54;;;;;;;11.77;10.00;;;;;;;20.87;94.95;99455.50;5062909;28;20128;-81
2022/07/30 03:33:20;;;;;;;10.45;9.45;;;;;;;20.88;94.99;99477.53;5049295;28;20123;-82
2022/07/30 03:35:46;;;;;;;11.27;10.05;;;;;;;20.88;95.44;99482.41;5047624;28;20041;-82
2022/07/30 03:38:15;;;;;;;11.18;9.60;;;;;;;20.78;96.06;99467.88;5067808;28;20552;-81
2022/07/30 03:40:41;;;;;;;12.07;10.25;;;;;;;20.78;96.40;99495.28;5067112;28;20035;-82
2022/07/30 03:43:08;;;;;;;11.32;10.10;;;;;;;20.73;96.85;99498.91;5057316;28;20051;-82
2022/07/30 03:45:36;;;;;;;11.35;10.25;;;;;;;20.71;97.05;99490.19;5053483;28;20040;-82
2022/07/30 03:48:06;;;;;;;11.38;10.15;;;;;;;20.77;98.10;99493.75;5056984;28;20244;-82
2022/07/30 03:50:37;;;;;;;11.23;10.10;;;;;;;20.73;97.95;99498.91;5054932;28;20487;-84
2022/07/30 03:53:04;;;;;;;11.27;10.13;;;;;;;20.76;98.87;99500.69;5055111;28;20037;-85
2022/07/30 03:55:32;;;;;;;11.63;9.52;;;;;;;20.71;98.59;99485.31;5043945;28;20040;-84
2022/07/30 03:58:18;;;;;;;9.38;8.40;;;;;;;20.69;97.54;99485.09;5067343;28;20083;-84
2022/07/30 04:00:47;;;;;;;10.70;7.88;;;;;;;20.79;96.81;99497.56;5064129;28;20565;-83
2022/07/30 04:03:22;;;;;;;8.27;7.45;;;;;;;20.77;96.62;99496.56;5071021;28;20157;-83
2022/07/30 04:05:48;;;;;;;10.10;7.60;;;;;;;20.81;97.18;99499.88;5066465;28;20497;-83
2022/07/30 04:08:14;;;;;;;8.23;7.38;;;;;;;20.86;96.95;99510.38;5056907;28;20040;-83
2022/07/30 04:10:40;;;;;;;7.70;6.88;;;;;;;20.85;96.00;99512.41;5063070;28;20514;-81
2022/07/30 04:13:41;;;;;;;8.05;6.95;;;;;;;20.90;96.24;99522.91;5030884;28;20038;-83
2022/07/30 04:16:15;;;;;;;12.30;7.05;;;;;;;20.85;96.63;99528.56;5063496;28;20052;-83
2022/07/30 04:18:46;;;;;;;7.25;6.40;;;;;;;20.89;96.14;99545.97;5052993;28;20055;-83
2022/07/30 04:21:14;;;;;;;6.78;6.05;;;;;;;20.91;96.02;99560.31;5051350;28;20040;-83
2022/07/30 04:23:41;;;;;;;7.50;6.13;;;;;;;20.90;95.96;99595.44;5063249;28;20060;-83
2022/07/30 04:26:07;;;;;;;6.97;6.28;;;;;;;20.93;95.51;99608.50;5042399;28;20049;-83
2022/07/30 04:28:33;;;;;;;6.10;5.53;;;;;;;20.93;94.77;99614.91;5066962;28;20106;-83
2022/07/30 04:30:59;;;;;;;10.13;5.43;;;;;;;20.88;95.22;99623.38;5051725;28;20040;-83
2022/07/30 04:33:25;;;;;;;5.50;5.00;;;;;;;20.91;94.80;99633.59;5057914;28;20413;-83
2022/07/30 04:36:07;;;;;;;5.45;4.80;;;;;;;20.90;94.30;99632.09;5063462;28;20055;-83
2022/07/30 04:38:35;;;;;;;5.72;4.72;;;;;;;20.84;94.29;99623.63;5049491;28;20091;-83
2022/07/30 04:41:01;;;;;;;5.28;4.60;;;;;;;20.86;94.20;99614.69;5053547;28;20084;-83
2022/07/30 04:43:31;;;;;;;4.22;3.75;;;;;;;20.83;93.79;99621.31;5069358;28;20438;-83
2022/07/30 04:45:56;;;;;;;4.10;3.70;;;;;;;20.83;93.43;99624.91;5066529;28;20132;-83
2022/07/30 04:48:25;;;;;;;4.38;3.35;;;;;;;20.82;93.75;99625.44;5053257;28;20048;-83
2022/07/30 04:51:28;;;;;;;5.95;3.00;;;;;;;20.76;93.18;99619.81;5061879;28;20032;-83
2022/07/30 04:53:55;;;;;;;3.20;2.80;;;;;;;20.77;93.22;99617.78;5051386;28;20060;-83
2022/07/30 04:56:21;;;;;;;3.70;2.78;;;;;;;20.68;93.86;99627.28;5065286;28;20044;-83
2022/07/30 04:58:48;;;;;;;4.38;2.42;;;;;;;20.61;94.77;99615.78;5048317;28;20040;-83
2022/07/30 05:01:17;;;;;;;6.53;2.90;;;;;;;20.58;96.86;99628.09;5043876;28;20434;-81
2022/07/30 05:03:45;;;;;;;2.97;2.60;;;;;;;20.47;97.55;99621.16;5067063;28;20136;-84
2022/07/30 05:06:11;;;;;;;2.40;2.10;;;;;;;20.30;99.63;99631.69;5030194;28;20043;-83
2022/07/30 05:08:38;;;;;;;5.28;3.90;;;;;;;20.21;100.00;99625.53;5049435;28;20049;-83
2022/07/30 05:11:10;;;;;;;3.85;2.60;;;;;;;20.12;100.00;99620.16;5060368;28;20032;-82
2022/07/30 05:13:36;;;;;;;3.58;2.58;;;;;;;20.01;100.00;99626.56;5053719;28;20543;-83
2022/07/30 05:16:03;;;;;;;4.25;2.70;;;;;;;19.90;100.00;99638.59;5059355;28;20182;-82
2022/07/30 05:18:28;;;;;;;4.13;2.92;;;;;;;19.85;100.00;99647.03;5059790;28;20131;-83
2022/07/30 05:20:54;;;;;;;5.32;2.47;;;;;;;19.82;100.00;99671.31;5070035;28;20108;-82
2022/07/30 05:23:23;;;;;;;4.93;2.72;;;;;;;19.76;100.00;99695.13;5067676;28;20040;-83
2022/07/30 05:25:58;;;;;;;3.65;2.53;;;;;;;19.68;100.00;99722.22;5055146;28;20049;-82
2022/07/30 05:28:32;;;;;;;3.92;2.83;;;;;;;19.70;100.00;99751.38;5042031;28;20071;-81
2022/07/30 05:31:03;;;;;;;5.15;2.70;;;;;;;19.63;100.00;99767.97;5068535;28;20071;-81
2022/07/30 05:33:28;;;;;;;5.85;3.40;;;;;;;19.51;100.00;99773.56;5068054;28;20486;-80
2022/07/30 05:35:54;;;;;;;7.63;4.05;;;;;;;19.50;100.00;99745.94;5033354;28;20037;-80
2022/07/30 05:38:20;;;;;;;10.88;4.47;;;;;;;19.40;100.00;99730.53;5033236;28;20072;-80
2022/07/30 05:41:06;;;;;;;8.65;4.88;;;;;;;19.15;100.00;99709.69;5050811;28;20052;-80
2022/07/30 05:43:56;;;;;;;7.85;3.90;;;;;;;19.15;100.00;99695.66;5049819;28;20076;-81
2022/07/30 05:46:22;;;;;;;6.30;4.05;;;;;;;18.89;100.00;99703.41;5068268;28;20072;-81
2022/07/30 05:48:48;;;;;;;5.53;3.90;;;;;;;18.78;100.00;99703.34;5071516;28;20131;-80
2022/07/30 05:51:14;;;;;;;6.38;3.95;;;;;;;18.71;100.00;99703.81;5069402;28;20494;-80
2022/07/30 05:53:39;;;;;;;5.53;3.80;;;;;;;18.58;100.00;99701.44;5069654;28;20064;-80
2022/07/30 05:56:25;;;;;;;4.97;4.00;;;;;;;18.54;100.00;99715.72;5061771;28;20044;-80
2022/07/30 05:59:06;;;;;;;6.57;4.03;;;;;;;18.49;100.00;99710.78;5060419;28;20048;-79
2022/07/30 06:01:52;;;;;;;5.55;3.90;;;;;;;18.37;100.00;99714.78;5066708;28;20070;-81
2022/07/30 06:04:24;;;;;;;5.43;3.58;;;;;;;18.35;100.00;99691.28;5053950;28;20098;-84
2022/07/30 06:06:57;;;;;;;7.05;3.53;;;;;;;18.34;100.00;99676.47;5067945;28;20460;-80
2022/07/30 06:09:24;;;;;;;5.47;3.65;;;;;;;18.33;100.00;99674.16;5048297;28;20052;-81
2022/07/30 06:11:50;;;;;;;5.30;3.90;;;;;;;18.34;100.00;99664.47;5052418;28;20021;-80
2022/07/30 06:14:15;;;;;;;4.97;3.40;;;;;;;18.32;100.00;99636.88;5065220;28;20566;-80
2022/07/30 06:16:41;;;;;;;4.50;3.40;;;;;;;18.31;100.00;99629.75;5067215;28;20565;-80
2022/07/30 06:19:06;;;;;;;7.40;3.38;;;;;;;18.27;100.00;99643.25;5067388;28;20055;-80
2022/07/30 06:21:40;;;;;;;3.75;2.90;;;;;;;18.22;100.00;99638.34;5068219;28;20115;-80
2022/07/30 06:24:11;;;;;;;4.13;3.08;;;;;;;18.18;100.00;99654.66;5068347;28;20048;-80
2022/07/30 06:26:57;;;;;;;3.95;3.08;;;;;;;18.10;100.00;99653.56;5069450;28;20120;-80
2022/07/30 06:29:22;;;;;;;4.30;2.75;;;;;;;18.11;100.00;99653.06;5054525;28;20152;-80
2022/07/30 06:31:48;;;;;;;3.53;3.22;;;;;;;18.11;100.00;99652.31;5069588;28;20582;-80
2022/07/30 06:34:14;;;;;;;3.92;2.85;;;;;;;18.10;100.00;99662.00;5087275;28;20046;-80
2022/07/30 06:36:41;;;;;;;3.30;3.00;;;;;;;18.15;100.00;99670.47;5105541;28;20105;-80
2022/07/30 06:39:19;;;;;;;6.43;3.10;;;;;;;18.14;100.00;99670.94;5087019;28;20059;-80
2022/07/30 06:41:57;;;;;;;4.63;2.90;;;;;;;18.15;100.00;99675.31;5088582;28;20046;-80
2022/07/30 06:44:27;;;;;;;4.28;2.90;;;;;;;18.12;100.00;99682.66;5055645;28;20406;-80
2022/07/30 06:47:12;;;;;;;3.58;2.80;;;;;;;18.18;100.00;99682.72;5068623;28;20044;-80
2022/07/30 06:49:38;;;;;;;3.20;2.85;;;;;;;18.24;100.00;99691.22;5067493;28;20102;-80
2022/07/30 06:52:07;;;;;;;3.97;2.92;;;;;;;18.25;100.00;99706.75;5051284;28;20448;-80
2022/07/30 06:54:33;;;;;;;3.55;3.25;;;;;;;18.31;100.00;99710.41;5050219;28;20393;-81
2022/07/30 06:57:12;;;;;;;4.00;3.35;;;;;;;18.32;100.00;99712.69;5057239;28;20049;-79
2022/07/30 06:59:37;;;;;;;3.88;3.28;;;;;;;18.39;100.00;99719.91;5054904;28;20047;-79
2022/07/30 07:02:12;;;;;;;4.53;3.20;;;;;;;18.42;100.00;99710.47;5050654;28;20040;-80
2022/07/30 07:04:58;;;;;;;3.67;3.15;;;;;;;18.47;100.00;99704.91;5069872;28;20040;-83
2022/07/30 07:07:23;;;;;;;4.70;3.72;;;;;;;18.53;100.00;99688.88;5052316;28;20189;-83
2022/07/30 07:09:49;;;;;;;4.68;4.15;;;;;;;18.62;100.00;99666.22;5053295;28;20068;-83
2022/07/30 07:12:34;;;;;;;4.55;4.00;;;;;;;18.72;100.00;99666.03;5090230;28;20132;-83
2022/07/30 07:15:00;;;;;;;4.50;4.10;;;;;;;18.75;100.00;99665.03;5062767;28;20131;-82
2022/07/30 07:17:27;;;;;;;6.97;4.70;;;;;;;18.73;100.00;99667.56;5065736;28;20155;-84
2022/07/30 07:19:55;;;;;;;4.47;4.07;;;;;;;18.79;100.00;99657.91;5072112;28;20043;-84
2022/07/30 07:22:21;;;;;;;5.70;4.25;;;;;;;18.86;100.00;99653.84;5072385;28;20127;-84
2022/07/30 07:24:47;;;;;;;4.80;4.30;;;;;;;18.90;100.00;99649.53;5072154;28;20064;-84
2022/07/30 07:27:16;;;;;;;4.75;4.18;;;;;;;18.94;100.00;99643.66;5086408;28;20082;-83
2022/07/30 07:29:44;;;;;;;5.43;4.28;;;;;;;18.98;100.00;99641.38;5066137;28;20044;-83
2022/07/30 07:32:10;;;;;;;4.80;4.30;;;;;;;18.96;100.00;99646.75;5055365;28;20500;-83
2022/07/30 07:34:37;;;;;;;4.72;4.10;;;;;;;18.96;100.00;99641.13;5091258;28;20044;-83
2022/07/30 07:37:03;;;;;;;4.72;4.10;;;;;;;19.03;100.00;99646.28;5087433;28;20691;-83
2022/07/30 07:39:28;;;;;;;5.18;4.10;;;;;;;18.94;100.00;99649.28;5085947;28;20036;-83
2022/07/30 07:41:54;;;;;;;5.80;4.40;;;;;;;18.94;100.00;99646.47;5086062;28;20036;-83
2022/07/30 07:44:22;;;;;;;4.97;4.47;;;;;;;18.93;100.00;99644.94;5080589;28;20040;-83
2022/07/30 07:46:48;;;;;;;5.03;4.40;;;;;;;18.94;100.00;99647.25;5091605;28;20036;-83
2022/07/30 07:49:14;;;;;;;7.05;5.30;;;;;;;18.84;100.00;99642.34;5092297;28;20101;-83
2022/07/30 07:51:44;;;;;;;5.93;4.90;;;;;;;18.91;100.00;99651.06;5075445;28;20031;-83
2022/07/30 07:54:12;;;;;;;6.00;5.28;;;;;;;18.92;100.00;99646.22;5074214;28;20431;-82
2022/07/30 07:56:39;;;;;;;5.18;4.68;;;;;;;18.86;100.00;99640.56;5058251;28;20485;-82
2022/07/30 07:59:05;;;;;;;5.53;4.93;;;;;;;18.96;100.00;99649.56;5064443;28;20040;-83
2022/07/30 08:01:31;;;;;;;5.18;4.68;;;;;;;18.92;100.00;99640.59;5072178;28;20460;-81
2022/07/30 08:04:17;;;;;;;5.60;5.10;;;;;;;18.99;100.00;99645.75;5057213;28;20110;-81
2022/07/30 08:07:01;;;;;;;5.72;4.88;;;;;;;19.01;100.00;99660.03;5080367;28;20106;-81
2022/07/30 08:09:45;;;;;;;6.00;5.20;;;;;;;18.90;100.00;99657.19;5084904;28;20121;-81
2022/07/30 08:12:30;;;;;;;5.60;4.80;;;;;;;19.11;100.00;99652.94;5082023;28;20761;-81
2022/07/30 08:15:33;;;;;;;;;;;;;;;19.21;100.00;99645.81;5070226;28;20207;-82
2022/07/30 08:18:11;;;;;;;5.18;4.65;;;;;;;19.39;100.00;99639.75;5063603;28;19938;-82
2022/07/30 08:20:50;;;;;;;5.65;4.60;;;;;;;19.51;100.00;99658.22;5070994;28;20173;-82
2022/07/30 08:23:21;;;;;;;5.80;4.47;;;;;;;19.62;100.00;99656.69;5072566;28;20124;-83
2022/07/30 08:25:47;;;;;;;5.38;4.88;;;;;;;19.68;100.00;99660.31;5071597;28;20448;-83
2022/07/30 08:28:13;;;;;;;5.38;4.80;;;;;;;19.61;100.00;99660.81;5083244;28;20036;-82
2022/07/30 08:30:39;;;;;;;6.85;4.68;;;;;;;19.67;100.00;99664.38;5071100;28;20075;-83
2022/07/30 08:33:04;;;;;;;5.35;4.68;;;;;;;19.60;100.00;99659.28;5072989;28;20028;-82
2022/07/30 08:35:30;;;;;;;5.88;5.28;;;;;;;19.55;100.00;99657.97;5082535;28;20043;-82
2022/07/30 08:37:56;;;;;;;5.80;4.80;;;;;;;19.55;100.00;99664.38;5063381;28;20404;-82
2022/07/30 08:40:24;;;;;;;6.47;5.22;;;;;;;19.44;100.00;99661.53;5064041;28;20440;-84
2022/07/30 08:42:58;;;;;;;5.43;4.65;;;;;;;19.42;100.00;99677.34;5064594;28;20037;-84
2022/07/30 08:45:24;;;;;;;5.68;4.93;;;;;;;19.42;100.00;99694.22;5075586;28;20069;-84
2022/07/30 08:47:51;;;;;;;5.70;5.18;;;;;;;19.40;100.00;99691.94;5065117;28;20075;-83
2022/07/30 08:50:26;;;;;;;5.93;5.07;;;;;;;19.51;100.00;99706.06;5071257;28;20041;-83
2022/07/30 08:53:22;;;;;;;6.40;5.78;;;;;;;19.40;100.00;99697.53;5029024;28;20087;-84
2022/07/30 08:55:48;;;;;;;5.65;5.03;;;;;;;19.33;100.00;99709.25;5054488;28;20033;-83
2022/07/30 08:58:25;;;;;;;5.53;5.03;;;;;;;19.22;100.00;99709.22;5067844;28;20049;-82
2022/07/30 09:00:50;;;;;;;7.18;4.93;;;;;;;19.17;100.00;99715.56;5070290;28;20032;-82
2022/07/30 09:03:16;;;;;;;6.47;5.40;;;;;;;19.04;100.00;99715.28;5077369;28;20036;-82
2022/07/30 09:05:43;;;;;;;6.55;5.60;;;;;;;19.02;100.00;99712.97;5067670;28;20071;-82
2022/07/30 09:08:08;;;;;;;5.80;5.10;;;;;;;18.89;100.00;99703.41;5059498;28;20514;-82
2022/07/30 09:10:34;;;;;;;7.00;5.78;;;;;;;18.93;100.00;99710.34;5062035;28;20414;-82
2022/07/30 09:13:00;;;;;;;6.45;5.85;;;;;;;18.96;100.00;99717.03;5059914;28;20110;-81
2022/07/30 09:15:27;;;;;;;6.07;5.53;;;;;;;18.91;100.00;99712.13;5061593;28;20047;-81
2022/07/30 09:17:59;;;;;;;6.70;5.80;;;;;;;18.91;100.00;99717.75;5070749;28;20048;-81
2022/07/30 09:20:29;;;;;;;6.35;5.75;;;;;;;18.96;100.00;99720.59;5070928;28;20402;-82
2022/07/30 09:22:58;;;;;;;6.97;6.30;;;;;;;18.98;100.00;99720.84;5070558;28;20079;-81
2022/07/30 09:25:35;;;;;;;6.45;5.85;;;;;;;19.00;100.00;99726.00;5071449;28;20040;-80
2022/07/30 09:28:31;;;;;;;6.75;6.03;;;;;;;19.08;100.00;99727.06;5062632;28;20456;-82
2022/07/30 09:31:16;;;;;;;6.28;5.60;;;;;;;19.19;100.00;99727.09;5068742;28;20127;-81
2022/07/30 09:34:00;;;;;;;6.70;5.85;;;;;;;19.25;100.00;99735.56;5061786;28;20056;-82
2022/07/30 09:36:44;;;;;;;7.20;6.50;;;;;;;19.24;100.00;99732.00;5065529;28;20521;-82
2022/07/30 09:39:35;;;;;;;6.10;5.50;;;;;;;19.29;100.00;99719.97;5053466;28;20040;-80
2022/07/30 09:42:21;;;;;;;6.78;6.18;;;;;;;19.42;100.00;99739.22;5070140;28;20059;-83
2022/07/30 09:44:49;;;;;;;6.05;5.45;;;;;;;19.33;100.00;99740.19;5051694;28;20136;-82
2022/07/30 09:47:30;;;;;;;6.35;5.75;;;;;;;19.50;100.00;99729.03;5061430;28;20041;-83
2022/07/30 09:50:06;;;;;;;5.75;4.97;;;;;;;19.61;100.00;99728.34;5064001;28;20036;-82
2022/07/30 09:52:32;;;;;;;5.90;5.40;;;;;;;19.79;100.00;99739.91;5053608;28;20409;-82
2022/07/30 09:54:57;;;;;;;5.43;4.93;;;;;;;19.98;100.00;99723.28;5068543;28;20037;-82
2022/07/30 09:57:26;;;;;;;5.03;4.53;;;;;;;19.98;100.00;99723.28;5044209;28;20477;-82
2022/07/30 09:59:52;;;;;;;4.75;4.25;;;;;;;20.11;100.00;99732.03;5047866;28;20509;-82
2022/07/30 10:02:18;;;;;;;5.43;4.40;;;;;;;20.18;100.00;99739.97;5043043;28;20357;-81
2022/07/30 10:05:10;;;;;;;4.93;4.35;;;;;;;20.10;100.00;99741.00;5041384;28;20417;-82
2022/07/30 10:07:35;;;;;;;;;;;;;;;20.07;100.00;99737.13;5033605;28;20056;-82
2022/07/30 10:10:02;;;;;;;5.15;3.80;;;;;;;20.06;100.00;99740.47;5045029;28;20039;-81
2022/07/30 10:12:31;;;;;;;4.25;3.85;;;;;;;20.06;100.00;99732.78;5044238;28;20032;-82
2022/07/30 10:15:00;;;;;;;4.97;3.70;;;;;;;20.12;100.00;99742.00;5043012;28;20043;-81
2022/07/30 10:17:30;;;;;;;4.20;3.80;;;;;;;20.20;100.00;99740.22;5031569;28;20258;-83
2022/07/30 10:20:15;;;;;;;3.40;3.10;;;;;;;20.41;100.00;99750.00;5041902;28;20044;-82
2022/07/30 10:22:59;;;;;;;3.85;3.45;;;;;;;20.53;100.00;99731.06;5044506;28;20083;-81
2022/07/30 10:25:34;;;;;;;4.30;3.60;;;;;;;20.61;100.00;99729.25;5059248;28;20039;-82
2022/07/30 10:28:32;;;;;;;3.75;3.45;;;;;;;20.76;100.00;99726.16;5008042;28;20138;-81
2022/07/30 10:30:58;;;;;;;3.83;3.53;;;;;;;20.80;100.00;99729.47;5041919;28;20502;-83
2022/07/30 10:33:27;;;;;;;3.80;3.30;;;;;;;20.92;100.00;99725.38;5040233;28;20041;-82
2022/07/30 10:35:53;;;;;;;5.25;3.22;;;;;;;20.93;100.00;99726.91;5057025;28;20393;-82
2022/07/30 10:38:23;;;;;;;3.83;3.10;;;;;;;21.11;100.00;99728.41;5058028;28;20136;-82
2022/07/30 10:40:57;;;;;;;3.92;3.10;;;;;;;21.13;100.00;99723.81;5044276;28;20072;-82
2022/07/30 10:44:00;;;;;;;3.90;3.10;;;;;;;21.33;100.00;99736.81;5063078;28;20040;-82
2022/07/30 10:46:36;;;;;;;5.30;3.00;;;;;;;21.35;100.00;99734.25;5059521;28;20517;-81
2022/07/30 10:49:13;;;;;;;5.78;3.38;;;;;;;21.34;100.00;99733.47;5040190;28;20044;-82
2022/07/30 10:51:50;;;;;;;3.72;3.38;;;;;;;21.37;100.00;99731.66;5060534;28;20433;-81
2022/07/30 10:54:43;;;;;;;3.50;3.20;;;;;;;21.46;100.00;99733.44;5057775;28;20063;-83
2022/07/30 10:57:10;;;;;;;4.82;3.10;;;;;;;21.40;100.00;99737.03;5060635;28;20123;-83
2022/07/30 10:59:51;;;;;;;5.50;3.17;;;;;;;21.42;100.00;99718.84;5057818;28;20744;-82
2022/07/30 11:02:18;;;;;;;4.05;2.95;;;;;;;21.42;100.00;99730.13;5057942;28;20052;-82
2022/07/30 11:04:44;;;;;;;3.72;3.20;;;;;;;21.22;100.00;99728.41;5040937;28;20497;-82
2022/07/30 11:07:28;;;;;;;3.20;2.88;;;;;;;21.29;100.00;99725.81;5065452;28;20075;-84
2022/07/30 11:10:00;;;;;;;3.83;3.00;;;;;;;21.14;100.00;99719.72;5089506;28;20042;-82
2022/07/30 11:12:40;;;;;;;3.53;3.07;;;;;;;21.22;100.00;99729.16;5084524;28;20465;-81
2022/07/30 11:15:13;;;;;;;3.25;2.95;;;;;;;21.29;100.00;99722.97;5079378;28;20040;-82
2022/07/30 11:18:03;;;;;;;4.55;3.00;;;;;;;21.49;100.00;99718.28;5087287;28;20040;-83
2022/07/30 11:20:30;;;;;;;3.80;3.03;;;;;;;21.48;100.00;99719.56;5085213;28;20090;-82
2022/07/30 11:23:23;;;;;;;4.80;2.83;;;;;;;21.47;100.00;99726.50;5086383;28;20032;-82
2022/07/30 11:25:49;;;;;;;4.00;3.00;;;;;;;21.49;100.00;99726.75;5090401;28;20132;-82
2022/07/30 11:28:45;;;;;;;3.58;2.80;;;;;;;21.44;100.00;99724.72;5080565;28;20127;-81
2022/07/30 11:31:32;;;;;;;3.13;2.83;;;;;;;21.50;100.00;99714.19;5061100;28;20056;-83
2022/07/30 11:34:19;;;;;;;4.68;3.30;;;;;;;21.64;100.00;99722.31;5055693;28;20044;-83
2022/07/30 11:37:13;;;;;;;3.65;3.08;;;;;;;21.78;100.00;99714.81;5084838;28;20140;-83
2022/07/30 11:39:54;;;;;;;;;;;;;;;21.93;100.00;99711.66;5085539;28;20146;-83
2022/07/30 11:42:22;;;;;;;4.97;2.90;;;;;;;21.73;100.00;99710.72;5076672;28;19920;-84
2022/07/30 11:44:48;;;;;;;3.75;3.10;;;;;;;21.84;100.00;99727.59;5082355;28;20047;-84
2022/07/30 11:47:14;;;;;;;3.78;3.08;;;;;;;21.88;100.00;99718.84;5056685;28;20048;-83